sensor_id;sensor_type;location;lat;lon;timestamp;P1;durP1;ratioP1;P2;durP2;ratioP2
73454;SDS011;61690;51.824;6.306;2023-06-26T00:02:11;17.43;;;14.57;;
73454;SDS011;61690;51.824;6.306;2023-06-26T00:04:37;16.80;;;14.17;;
73454;SDS011;61690;51.824;6.306;2023-06-26T00:07:02;17.55;;;14.07;;
73454;SDS011;61690;51.824;6.306;2023-06-26T00:09:29;16.13;;;12.63;;
73454;SDS011;61690;51.824;6.306;2023-06-26T00:11:54;15.15;;;12.00;;
73454;SDS011;61690;51.824;6.306;2023-06-26T00:14:19;15.30;;;11.43;;
73454;SDS011;61690;51.824;6.306;2023-06-26T00:16:46;15.50;;;11.75;;
73454;SDS011;61690;51.824;6.306;2023-06-26T00:19:11;13.80;;;10.37;;
73454;SDS011;61690;51.824;6.306;2023-06-26T00:21:37;12.27;;;10.40;;
73454;SDS011;61690;51.824;6.306;2023-06-26T00:24:02;12.93;;;10.63;;
73454;SDS011;61690;51.824;6.306;2023-06-26T00:26:30;12.60;;;10.60;;
73454;SDS011;61690;51.824;6.306;2023-06-26T00:28:55;13.90;;;11.20;;
73454;SDS011;61690;51.824;6.306;2023-06-26T00:31:20;16.23;;;11.73;;
73454;SDS011;61690;51.824;6.306;2023-06-26T00:33:46;15.83;;;12.17;;
73454;SDS011;61690;51.824;6.306;2023-06-26T00:36:11;13.95;;;11.18;;
73454;SDS011;61690;51.824;6.306;2023-06-26T00:38:37;15.17;;;11.63;;
73454;SDS011;61690;51.824;6.306;2023-06-26T00:41:02;14.23;;;10.93;;
73454;SDS011;61690;51.824;6.306;2023-06-26T00:43:30;15.90;;;12.10;;
73454;SDS011;61690;51.824;6.306;2023-06-26T00:45:55;12.00;;;10.10;;
73454;SDS011;61690;51.824;6.306;2023-06-26T00:48:21;15.10;;;10.23;;
73454;SDS011;61690;51.824;6.306;2023-06-26T00:50:46;13.60;;;9.90;;
73454;SDS011;61690;51.824;6.306;2023-06-26T00:53:13;14.30;;;10.10;;
73454;SDS011;61690;51.824;6.306;2023-06-26T00:55:38;12.52;;;9.55;;
73454;SDS011;61690;51.824;6.306;2023-06-26T00:58:04;13.70;;;10.40;;
73454;SDS011;61690;51.824;6.306;2023-06-26T01:00:29;13.27;;;10.10;;
73454;SDS011;61690;51.824;6.306;2023-06-26T01:02:55;13.47;;;10.43;;
73454;SDS011;61690;51.824;6.306;2023-06-26T01:05:25;15.75;;;12.20;;
73454;SDS011;61690;51.824;6.306;2023-06-26T01:07:52;13.27;;;10.27;;
73454;SDS011;61690;51.824;6.306;2023-06-26T01:10:18;13.80;;;10.75;;
73454;SDS011;61690;51.824;6.306;2023-06-26T01:12:44;13.05;;;10.18;;
73454;SDS011;61690;51.824;6.306;2023-06-26T01:15:10;15.20;;;11.10;;
73454;SDS011;61690;51.824;6.306;2023-06-26T01:17:37;14.33;;;11.00;;
73454;SDS011;61690;51.824;6.306;2023-06-26T01:20:04;15.50;;;11.45;;
73454;SDS011;61690;51.824;6.306;2023-06-26T01:22:48;14.63;;;11.82;;
73454;SDS011;61690;51.824;6.306;2023-06-26T01:25:20;15.05;;;11.82;;
73454;SDS011;61690;51.824;6.306;2023-06-26T01:27:55;15.93;;;11.43;;
73454;SDS011;61690;51.824;6.306;2023-06-26T01:30:21;14.80;;;11.50;;
73454;SDS011;61690;51.824;6.306;2023-06-26T01:32:47;15.13;;;11.13;;
73454;SDS011;61690;51.824;6.306;2023-06-26T01:35:14;14.15;;;11.30;;
73454;SDS011;61690;51.824;6.306;2023-06-26T01:37:40;16.08;;;11.40;;
73454;SDS011;61690;51.824;6.306;2023-06-26T01:40:06;14.20;;;10.68;;
73454;SDS011;61690;51.824;6.306;2023-06-26T01:42:33;16.40;;;10.90;;
73454;SDS011;61690;51.824;6.306;2023-06-26T01:45:02;19.30;;;11.63;;
73454;SDS011;61690;51.824;6.306;2023-06-26T01:47:40;14.20;;;11.20;;
73454;SDS011;61690;51.824;6.306;2023-06-26T01:50:11;17.38;;;11.95;;
73454;SDS011;61690;51.824;6.306;2023-06-26T01:52:43;18.30;;;11.57;;
73454;SDS011;61690;51.824;6.306;2023-06-26T01:57:54;14.13;;;11.32;;
73454;SDS011;61690;51.824;6.306;2023-06-26T02:00:22;15.77;;;11.10;;
73454;SDS011;61690;51.824;6.306;2023-06-26T02:02:49;15.38;;;11.73;;
73454;SDS011;61690;51.824;6.306;2023-06-26T02:05:14;15.70;;;12.00;;
73454;SDS011;61690;51.824;6.306;2023-06-26T02:07:40;17.23;;;11.67;;
73454;SDS011;61690;51.824;6.306;2023-06-26T02:10:06;14.80;;;11.60;;
73454;SDS011;61690;51.824;6.306;2023-06-26T02:12:33;14.55;;;12.18;;
73454;SDS011;61690;51.824;6.306;2023-06-26T02:15:00;16.10;;;12.17;;
73454;SDS011;61690;51.824;6.306;2023-06-26T02:17:26;15.23;;;11.98;;
73454;SDS011;61690;51.824;6.306;2023-06-26T02:19:51;15.73;;;12.57;;
73454;SDS011;61690;51.824;6.306;2023-06-26T02:22:16;16.63;;;12.57;;
73454;SDS011;61690;51.824;6.306;2023-06-26T02:24:42;17.17;;;13.03;;
73454;SDS011;61690;51.824;6.306;2023-06-26T02:27:09;16.43;;;12.63;;
73454;SDS011;61690;51.824;6.306;2023-06-26T02:29:35;15.70;;;12.60;;
73454;SDS011;61690;51.824;6.306;2023-06-26T02:32:01;17.42;;;13.77;;
73454;SDS011;61690;51.824;6.306;2023-06-26T02:34:26;17.30;;;13.43;;
73454;SDS011;61690;51.824;6.306;2023-06-26T02:36:52;17.45;;;13.07;;
73454;SDS011;61690;51.824;6.306;2023-06-26T02:39:20;16.90;;;12.45;;
73454;SDS011;61690;51.824;6.306;2023-06-26T02:41:46;18.33;;;12.32;;
73454;SDS011;61690;51.824;6.306;2023-06-26T02:44:12;15.47;;;11.67;;
73454;SDS011;61690;51.824;6.306;2023-06-26T02:46:37;14.60;;;11.40;;
73454;SDS011;61690;51.824;6.306;2023-06-26T02:49:03;15.93;;;11.23;;
73454;SDS011;61690;51.824;6.306;2023-06-26T02:51:31;15.20;;;10.20;;
73454;SDS011;61690;51.824;6.306;2023-06-26T02:53:57;12.98;;;9.70;;
73454;SDS011;61690;51.824;6.306;2023-06-26T02:56:22;12.37;;;9.80;;
73454;SDS011;61690;51.824;6.306;2023-06-26T02:58:47;11.77;;;9.37;;
73454;SDS011;61690;51.824;6.306;2023-06-26T03:01:12;12.77;;;9.80;;
73454;SDS011;61690;51.824;6.306;2023-06-26T03:03:38;12.87;;;8.97;;
73454;SDS011;61690;51.824;6.306;2023-06-26T03:06:08;13.35;;;9.18;;
73454;SDS011;61690;51.824;6.306;2023-06-26T03:08:37;10.90;;;7.85;;
73454;SDS011;61690;51.824;6.306;2023-06-26T03:11:04;11.77;;;8.30;;
73454;SDS011;61690;51.824;6.306;2023-06-26T03:13:30;12.90;;;7.85;;
73454;SDS011;61690;51.824;6.306;2023-06-26T03:15:56;14.38;;;7.55;;
73454;SDS011;61690;51.824;6.306;2023-06-26T03:18:22;10.47;;;7.03;;
73454;SDS011;61690;51.824;6.306;2023-06-26T03:20:47;10.83;;;6.30;;
73454;SDS011;61690;51.824;6.306;2023-06-26T03:23:13;10.32;;;6.07;;
73454;SDS011;61690;51.824;6.306;2023-06-26T03:25:38;10.03;;;5.70;;
73454;SDS011;61690;51.824;6.306;2023-06-26T03:28:03;9.60;;;5.50;;
73454;SDS011;61690;51.824;6.306;2023-06-26T03:30:29;9.53;;;5.33;;
73454;SDS011;61690;51.824;6.306;2023-06-26T03:32:54;9.53;;;5.27;;
73454;SDS011;61690;51.824;6.306;2023-06-26T03:35:19;10.50;;;5.03;;
73454;SDS011;61690;51.824;6.306;2023-06-26T03:37:44;9.75;;;5.25;;
73454;SDS011;61690;51.824;6.306;2023-06-26T03:40:10;10.63;;;4.57;;
73454;SDS011;61690;51.824;6.306;2023-06-26T03:42:36;9.23;;;4.80;;
73454;SDS011;61690;51.824;6.306;2023-06-26T03:45:03;11.90;;;4.68;;
73454;SDS011;61690;51.824;6.306;2023-06-26T03:47:28;8.70;;;4.63;;
73454;SDS011;61690;51.824;6.306;2023-06-26T03:49:53;8.43;;;4.60;;
73454;SDS011;61690;51.824;6.306;2023-06-26T03:52:19;10.25;;;4.30;;
73454;SDS011;61690;51.824;6.306;2023-06-26T03:54:44;10.83;;;4.90;;
73454;SDS011;61690;51.824;6.306;2023-06-26T03:57:10;9.60;;;4.40;;
73454;SDS011;61690;51.824;6.306;2023-06-26T03:59:36;10.60;;;4.60;;
73454;SDS011;61690;51.824;6.306;2023-06-26T04:02:01;11.55;;;4.30;;
73454;SDS011;61690;51.824;6.306;2023-06-26T04:04:27;8.95;;;4.35;;
73454;SDS011;61690;51.824;6.306;2023-06-26T04:06:53;11.13;;;4.10;;
73454;SDS011;61690;51.824;6.306;2023-06-26T04:09:18;10.53;;;4.33;;
73454;SDS011;61690;51.824;6.306;2023-06-26T04:11:44;12.68;;;4.50;;
73454;SDS011;61690;51.824;6.306;2023-06-26T04:14:09;10.63;;;4.40;;
73454;SDS011;61690;51.824;6.306;2023-06-26T04:16:35;12.43;;;4.40;;
73454;SDS011;61690;51.824;6.306;2023-06-26T04:19:00;10.70;;;4.27;;
73454;SDS011;61690;51.824;6.306;2023-06-26T04:21:28;12.17;;;4.70;;
73454;SDS011;61690;51.824;6.306;2023-06-26T04:23:53;10.80;;;4.57;;
73454;SDS011;61690;51.824;6.306;2023-06-26T04:26:18;13.53;;;4.70;;
73454;SDS011;61690;51.824;6.306;2023-06-26T04:28:43;10.67;;;4.37;;
73454;SDS011;61690;51.824;6.306;2023-06-26T04:31:09;16.63;;;5.20;;
73454;SDS011;61690;51.824;6.306;2023-06-26T04:33:35;11.40;;;4.53;;
73454;SDS011;61690;51.824;6.306;2023-06-26T04:36:04;12.15;;;4.85;;
73454;SDS011;61690;51.824;6.306;2023-06-26T04:38:43;14.75;;;4.90;;
73454;SDS011;61690;51.824;6.306;2023-06-26T04:41:10;13.35;;;4.80;;
73454;SDS011;61690;51.824;6.306;2023-06-26T04:43:35;11.60;;;4.57;;
73454;SDS011;61690;51.824;6.306;2023-06-26T04:46:04;13.87;;;4.80;;
73454;SDS011;61690;51.824;6.306;2023-06-26T04:48:30;14.57;;;5.00;;
73454;SDS011;61690;51.824;6.306;2023-06-26T04:50:56;12.32;;;4.70;;
73454;SDS011;61690;51.824;6.306;2023-06-26T04:53:21;12.07;;;4.33;;
73454;SDS011;61690;51.824;6.306;2023-06-26T04:55:51;13.15;;;4.72;;
73454;SDS011;61690;51.824;6.306;2023-06-26T04:58:18;13.30;;;4.70;;
73454;SDS011;61690;51.824;6.306;2023-06-26T05:00:43;12.90;;;5.00;;
73454;SDS011;61690;51.824;6.306;2023-06-26T05:03:16;15.80;;;4.67;;
73454;SDS011;61690;51.824;6.306;2023-06-26T05:05:45;10.40;;;4.35;;
73454;SDS011;61690;51.824;6.306;2023-06-26T05:10:43;12.10;;;4.60;;
73454;SDS011;61690;51.824;6.306;2023-06-26T05:13:09;14.40;;;4.85;;
73454;SDS011;61690;51.824;6.306;2023-06-26T05:15:36;13.57;;;4.70;;
73454;SDS011;61690;51.824;6.306;2023-06-26T05:18:01;11.52;;;4.63;;
73454;SDS011;61690;51.824;6.306;2023-06-26T05:20:27;10.03;;;4.30;;
73454;SDS011;61690;51.824;6.306;2023-06-26T05:22:52;13.50;;;4.83;;
73454;SDS011;61690;51.824;6.306;2023-06-26T05:25:18;12.73;;;4.60;;
73454;SDS011;61690;51.824;6.306;2023-06-26T05:27:46;12.57;;;4.43;;
73454;SDS011;61690;51.824;6.306;2023-06-26T05:30:12;14.95;;;4.90;;
73454;SDS011;61690;51.824;6.306;2023-06-26T05:32:38;13.77;;;4.67;;
73454;SDS011;61690;51.824;6.306;2023-06-26T05:35:05;13.55;;;4.55;;
73454;SDS011;61690;51.824;6.306;2023-06-26T05:37:33;10.73;;;4.35;;
73454;SDS011;61690;51.824;6.306;2023-06-26T05:40:01;15.07;;;4.60;;
73454;SDS011;61690;51.824;6.306;2023-06-26T05:42:28;12.52;;;4.53;;
73454;SDS011;61690;51.824;6.306;2023-06-26T05:44:55;13.03;;;5.00;;
73454;SDS011;61690;51.824;6.306;2023-06-26T05:47:22;15.18;;;4.78;;
73454;SDS011;61690;51.824;6.306;2023-06-26T05:49:48;13.32;;;4.95;;
73454;SDS011;61690;51.824;6.306;2023-06-26T05:52:14;16.30;;;5.10;;
73454;SDS011;61690;51.824;6.306;2023-06-26T05:54:39;15.02;;;5.00;;
73454;SDS011;61690;51.824;6.306;2023-06-26T05:57:07;11.98;;;5.18;;
73454;SDS011;61690;51.824;6.306;2023-06-26T05:59:33;14.70;;;5.10;;
73454;SDS011;61690;51.824;6.306;2023-06-26T06:02:02;18.30;;;4.75;;
73454;SDS011;61690;51.824;6.306;2023-06-26T06:04:28;11.73;;;4.53;;
73454;SDS011;61690;51.824;6.306;2023-06-26T06:06:54;14.50;;;4.60;;
73454;SDS011;61690;51.824;6.306;2023-06-26T06:09:19;13.90;;;4.47;;
73454;SDS011;61690;51.824;6.306;2023-06-26T06:11:45;12.88;;;4.13;;
73454;SDS011;61690;51.824;6.306;2023-06-26T06:14:10;18.10;;;5.03;;
73454;SDS011;61690;51.824;6.306;2023-06-26T06:16:37;13.97;;;5.00;;
73454;SDS011;61690;51.824;6.306;2023-06-26T06:19:02;12.80;;;4.67;;
73454;SDS011;61690;51.824;6.306;2023-06-26T06:21:29;15.93;;;4.70;;
73454;SDS011;61690;51.824;6.306;2023-06-26T06:23:55;12.77;;;4.50;;
73454;SDS011;61690;51.824;6.306;2023-06-26T06:26:21;11.13;;;4.30;;
73454;SDS011;61690;51.824;6.306;2023-06-26T06:28:47;11.27;;;4.20;;
73454;SDS011;61690;51.824;6.306;2023-06-26T06:31:12;14.18;;;4.20;;
73454;SDS011;61690;51.824;6.306;2023-06-26T06:33:38;11.37;;;4.10;;
73454;SDS011;61690;51.824;6.306;2023-06-26T06:36:03;11.50;;;4.27;;
73454;SDS011;61690;51.824;6.306;2023-06-26T06:38:30;11.05;;;4.10;;
73454;SDS011;61690;51.824;6.306;2023-06-26T06:40:56;14.07;;;4.22;;
73454;SDS011;61690;51.824;6.306;2023-06-26T06:43:21;12.07;;;4.43;;
73454;SDS011;61690;51.824;6.306;2023-06-26T06:45:46;10.83;;;4.30;;
73454;SDS011;61690;51.824;6.306;2023-06-26T06:48:12;14.07;;;4.00;;
73454;SDS011;61690;51.824;6.306;2023-06-26T06:50:38;12.13;;;4.78;;
73454;SDS011;61690;51.824;6.306;2023-06-26T06:53:03;11.53;;;4.13;;
73454;SDS011;61690;51.824;6.306;2023-06-26T06:55:33;11.18;;;4.00;;
73454;SDS011;61690;51.824;6.306;2023-06-26T06:57:58;11.88;;;4.32;;
73454;SDS011;61690;51.824;6.306;2023-06-26T07:00:24;10.03;;;4.00;;
73454;SDS011;61690;51.824;6.306;2023-06-26T07:02:50;10.63;;;3.92;;
73454;SDS011;61690;51.824;6.306;2023-06-26T07:05:16;10.93;;;4.30;;
73454;SDS011;61690;51.824;6.306;2023-06-26T07:07:41;10.77;;;3.83;;
73454;SDS011;61690;51.824;6.306;2023-06-26T07:10:12;12.43;;;4.33;;
73454;SDS011;61690;51.824;6.306;2023-06-26T07:12:38;14.80;;;3.97;;
73454;SDS011;61690;51.824;6.306;2023-06-26T07:15:05;11.50;;;4.20;;
73454;SDS011;61690;51.824;6.306;2023-06-26T07:17:32;13.13;;;3.93;;
73454;SDS011;61690;51.824;6.306;2023-06-26T07:20:00;11.23;;;4.40;;
73454;SDS011;61690;51.824;6.306;2023-06-26T07:22:25;11.45;;;4.30;;
73454;SDS011;61690;51.824;6.306;2023-06-26T07:24:51;12.52;;;4.15;;
73454;SDS011;61690;51.824;6.306;2023-06-26T07:27:19;12.83;;;3.53;;
73454;SDS011;61690;51.824;6.306;2023-06-26T07:29:45;11.35;;;4.03;;
73454;SDS011;61690;51.824;6.306;2023-06-26T07:32:10;11.63;;;4.00;;
73454;SDS011;61690;51.824;6.306;2023-06-26T07:34:36;10.18;;;3.53;;
73454;SDS011;61690;51.824;6.306;2023-06-26T07:37:02;9.03;;;3.70;;
73454;SDS011;61690;51.824;6.306;2023-06-26T07:39:27;10.32;;;3.67;;
73454;SDS011;61690;51.824;6.306;2023-06-26T07:41:53;11.00;;;3.77;;
73454;SDS011;61690;51.824;6.306;2023-06-26T07:44:20;8.77;;;3.83;;
73454;SDS011;61690;51.824;6.306;2023-06-26T07:46:46;9.32;;;3.60;;
73454;SDS011;61690;51.824;6.306;2023-06-26T07:49:13;9.45;;;3.67;;
73454;SDS011;61690;51.824;6.306;2023-06-26T07:51:39;11.00;;;3.57;;
73454;SDS011;61690;51.824;6.306;2023-06-26T07:54:05;10.83;;;4.00;;
73454;SDS011;61690;51.824;6.306;2023-06-26T07:59:18;7.35;;;3.40;;
73454;SDS011;61690;51.824;6.306;2023-06-26T08:01:43;13.40;;;4.10;;
73454;SDS011;61690;51.824;6.306;2023-06-26T08:04:09;8.60;;;3.43;;
73454;SDS011;61690;51.824;6.306;2023-06-26T08:06:35;8.68;;;3.80;;
73454;SDS011;61690;51.824;6.306;2023-06-26T08:09:05;10.82;;;3.72;;
73454;SDS011;61690;51.824;6.306;2023-06-26T08:11:34;10.32;;;3.70;;
73454;SDS011;61690;51.824;6.306;2023-06-26T08:14:00;8.03;;;3.60;;
73454;SDS011;61690;51.824;6.306;2023-06-26T08:16:26;12.40;;;3.57;;
73454;SDS011;61690;51.824;6.306;2023-06-26T08:18:53;9.05;;;3.78;;
73454;SDS011;61690;51.824;6.306;2023-06-26T08:21:39;9.68;;;3.72;;
73454;SDS011;61690;51.824;6.306;2023-06-26T08:24:05;8.33;;;3.67;;
73454;SDS011;61690;51.824;6.306;2023-06-26T08:26:30;10.17;;;3.70;;
73454;SDS011;61690;51.824;6.306;2023-06-26T08:28:57;10.47;;;3.73;;
73454;SDS011;61690;51.824;6.306;2023-06-26T08:31:25;8.90;;;3.50;;
73454;SDS011;61690;51.824;6.306;2023-06-26T08:33:50;6.80;;;2.93;;
73454;SDS011;61690;51.824;6.306;2023-06-26T08:36:15;9.10;;;3.73;;
73454;SDS011;61690;51.824;6.306;2023-06-26T08:38:41;7.87;;;3.37;;
73454;SDS011;61690;51.824;6.306;2023-06-26T08:41:06;7.97;;;3.57;;
73454;SDS011;61690;51.824;6.306;2023-06-26T08:43:32;8.00;;;3.38;;
73454;SDS011;61690;51.824;6.306;2023-06-26T08:46:00;8.30;;;3.30;;
73454;SDS011;61690;51.824;6.306;2023-06-26T08:48:25;7.80;;;3.10;;
73454;SDS011;61690;51.824;6.306;2023-06-26T08:50:54;7.35;;;3.33;;
73454;SDS011;61690;51.824;6.306;2023-06-26T08:53:23;7.97;;;3.47;;
73454;SDS011;61690;51.824;6.306;2023-06-26T08:55:52;7.75;;;3.40;;
73454;SDS011;61690;51.824;6.306;2023-06-26T08:58:18;9.38;;;3.53;;
73454;SDS011;61690;51.824;6.306;2023-06-26T09:00:44;7.85;;;3.13;;
73454;SDS011;61690;51.824;6.306;2023-06-26T09:03:10;9.20;;;3.90;;
73454;SDS011;61690;51.824;6.306;2023-06-26T09:05:35;9.27;;;3.73;;
73454;SDS011;61690;51.824;6.306;2023-06-26T09:08:01;7.65;;;3.15;;
73454;SDS011;61690;51.824;6.306;2023-06-26T09:10:28;7.78;;;3.10;;
73454;SDS011;61690;51.824;6.306;2023-06-26T09:12:56;9.87;;;3.80;;
73454;SDS011;61690;51.824;6.306;2023-06-26T09:15:23;6.95;;;2.80;;
73454;SDS011;61690;51.824;6.306;2023-06-26T09:17:49;7.82;;;3.47;;
73454;SDS011;61690;51.824;6.306;2023-06-26T09:20:15;8.18;;;3.28;;
73454;SDS011;61690;51.824;6.306;2023-06-26T09:22:41;6.63;;;3.23;;
73454;SDS011;61690;51.824;6.306;2023-06-26T09:25:08;9.13;;;3.42;;
73454;SDS011;61690;51.824;6.306;2023-06-26T09:27:37;10.57;;;3.40;;
73454;SDS011;61690;51.824;6.306;2023-06-26T09:30:03;8.70;;;3.37;;
73454;SDS011;61690;51.824;6.306;2023-06-26T09:32:29;7.45;;;3.20;;
73454;SDS011;61690;51.824;6.306;2023-06-26T09:34:54;7.40;;;3.33;;
73454;SDS011;61690;51.824;6.306;2023-06-26T09:37:22;8.25;;;3.35;;
73454;SDS011;61690;51.824;6.306;2023-06-26T09:39:50;6.82;;;2.90;;
73454;SDS011;61690;51.824;6.306;2023-06-26T09:42:19;9.02;;;3.35;;
73454;SDS011;61690;51.824;6.306;2023-06-26T09:44:45;10.23;;;3.53;;
73454;SDS011;61690;51.824;6.306;2023-06-26T09:47:15;6.73;;;3.10;;
73454;SDS011;61690;51.824;6.306;2023-06-26T09:49:41;6.82;;;3.45;;
73454;SDS011;61690;51.824;6.306;2023-06-26T09:52:09;5.75;;;3.00;;
73454;SDS011;61690;51.824;6.306;2023-06-26T09:54:39;6.72;;;3.25;;
73454;SDS011;61690;51.824;6.306;2023-06-26T09:57:07;7.38;;;3.45;;
73454;SDS011;61690;51.824;6.306;2023-06-26T09:59:33;7.90;;;3.03;;
73454;SDS011;61690;51.824;6.306;2023-06-26T10:01:59;8.23;;;3.10;;
73454;SDS011;61690;51.824;6.306;2023-06-26T10:04:25;8.38;;;2.92;;
73454;SDS011;61690;51.824;6.306;2023-06-26T10:06:51;7.13;;;2.95;;
73454;SDS011;61690;51.824;6.306;2023-06-26T10:09:19;6.53;;;2.87;;
73454;SDS011;61690;51.824;6.306;2023-06-26T10:11:47;6.35;;;3.00;;
73454;SDS011;61690;51.824;6.306;2023-06-26T10:14:24;6.88;;;2.67;;
73454;SDS011;61690;51.824;6.306;2023-06-26T10:16:52;6.72;;;3.10;;
73454;SDS011;61690;51.824;6.306;2023-06-26T10:19:24;6.35;;;2.92;;
73454;SDS011;61690;51.824;6.306;2023-06-26T10:21:52;6.30;;;2.90;;
73454;SDS011;61690;51.824;6.306;2023-06-26T10:24:19;7.55;;;3.05;;
73454;SDS011;61690;51.824;6.306;2023-06-26T10:26:45;8.05;;;2.92;;
73454;SDS011;61690;51.824;6.306;2023-06-26T10:29:15;6.72;;;3.00;;
73454;SDS011;61690;51.824;6.306;2023-06-26T10:31:45;5.55;;;2.88;;
73454;SDS011;61690;51.824;6.306;2023-06-26T10:34:15;5.63;;;2.77;;
73454;SDS011;61690;51.824;6.306;2023-06-26T10:36:41;5.38;;;2.70;;
73454;SDS011;61690;51.824;6.306;2023-06-26T10:39:06;6.20;;;2.90;;
73454;SDS011;61690;51.824;6.306;2023-06-26T10:41:39;5.73;;;3.03;;
73454;SDS011;61690;51.824;6.306;2023-06-26T10:44:13;6.35;;;2.92;;
73454;SDS011;61690;51.824;6.306;2023-06-26T10:49:15;5.30;;;2.72;;
73454;SDS011;61690;51.824;6.306;2023-06-26T10:51:45;6.10;;;2.93;;
73454;SDS011;61690;51.824;6.306;2023-06-26T10:54:16;6.47;;;2.83;;
73454;SDS011;61690;51.824;6.306;2023-06-26T10:57:14;7.50;;;2.70;;
73454;SDS011;61690;51.824;6.306;2023-06-26T10:59:48;6.88;;;2.35;;
73454;SDS011;61690;51.824;6.306;2023-06-26T11:02:47;4.65;;;1.85;;
73454;SDS011;61690;51.824;6.306;2023-06-26T11:05:22;7.00;;;2.00;;
73454;SDS011;61690;51.824;6.306;2023-06-26T11:08:07;6.05;;;2.10;;
73454;SDS011;61690;51.824;6.306;2023-06-26T11:10:48;7.67;;;2.20;;
73454;SDS011;61690;51.824;6.306;2023-06-26T11:13:16;5.82;;;1.90;;
73454;SDS011;61690;51.824;6.306;2023-06-26T11:15:45;6.85;;;1.75;;
73454;SDS011;61690;51.824;6.306;2023-06-26T11:18:12;6.15;;;1.48;;
73454;SDS011;61690;51.824;6.306;2023-06-26T11:20:39;6.25;;;1.83;;
73454;SDS011;61690;51.824;6.306;2023-06-26T11:23:07;4.83;;;1.50;;
73454;SDS011;61690;51.824;6.306;2023-06-26T11:25:37;6.97;;;1.80;;
73454;SDS011;61690;51.824;6.306;2023-06-26T11:28:04;6.70;;;1.90;;
73454;SDS011;61690;51.824;6.306;2023-06-26T11:30:30;8.32;;;2.00;;
73454;SDS011;61690;51.824;6.306;2023-06-26T11:33:02;5.38;;;1.63;;
73454;SDS011;61690;51.824;6.306;2023-06-26T11:35:31;6.88;;;2.10;;
73454;SDS011;61690;51.824;6.306;2023-06-26T11:38:02;5.57;;;1.80;;
73454;SDS011;61690;51.824;6.306;2023-06-26T11:40:35;6.93;;;2.10;;
73454;SDS011;61690;51.824;6.306;2023-06-26T11:43:01;7.22;;;1.60;;
73454;SDS011;61690;51.824;6.306;2023-06-26T11:45:28;5.20;;;1.70;;
73454;SDS011;61690;51.824;6.306;2023-06-26T11:47:56;5.85;;;1.65;;
73454;SDS011;61690;51.824;6.306;2023-06-26T11:50:22;5.47;;;1.50;;
73454;SDS011;61690;51.824;6.306;2023-06-26T11:52:54;8.25;;;1.77;;
73454;SDS011;61690;51.824;6.306;2023-06-26T11:55:21;6.53;;;1.42;;
73454;SDS011;61690;51.824;6.306;2023-06-26T11:57:54;4.30;;;1.65;;
73454;SDS011;61690;51.824;6.306;2023-06-26T12:00:21;8.13;;;1.77;;
73454;SDS011;61690;51.824;6.306;2023-06-26T12:02:47;6.27;;;1.67;;
73454;SDS011;61690;51.824;6.306;2023-06-26T12:05:19;4.38;;;1.33;;
73454;SDS011;61690;51.824;6.306;2023-06-26T12:07:46;6.33;;;1.50;;
73454;SDS011;61690;51.824;6.306;2023-06-26T12:10:13;4.13;;;1.40;;
73454;SDS011;61690;51.824;6.306;2023-06-26T12:12:40;10.90;;;1.60;;
73454;SDS011;61690;51.824;6.306;2023-06-26T12:15:07;7.03;;;1.60;;
73454;SDS011;61690;51.824;6.306;2023-06-26T12:17:33;4.40;;;1.70;;
73454;SDS011;61690;51.824;6.306;2023-06-26T12:20:23;7.77;;;1.43;;
73454;SDS011;61690;51.824;6.306;2023-06-26T12:22:50;4.40;;;1.30;;
73454;SDS011;61690;51.824;6.306;2023-06-26T12:25:22;6.38;;;1.33;;
73454;SDS011;61690;51.824;6.306;2023-06-26T12:27:48;5.03;;;1.60;;
73454;SDS011;61690;51.824;6.306;2023-06-26T12:30:15;5.13;;;1.60;;
73454;SDS011;61690;51.824;6.306;2023-06-26T12:32:40;4.57;;;1.33;;
73454;SDS011;61690;51.824;6.306;2023-06-26T12:35:10;5.93;;;1.60;;
73454;SDS011;61690;51.824;6.306;2023-06-26T12:37:36;5.63;;;1.20;;
73454;SDS011;61690;51.824;6.306;2023-06-26T12:40:15;7.85;;;1.80;;
73454;SDS011;61690;51.824;6.306;2023-06-26T12:42:43;4.18;;;1.33;;
73454;SDS011;61690;51.824;6.306;2023-06-26T12:45:12;5.10;;;1.60;;
73454;SDS011;61690;51.824;6.306;2023-06-26T12:47:39;4.97;;;1.30;;
73454;SDS011;61690;51.824;6.306;2023-06-26T12:50:06;6.97;;;1.10;;
73454;SDS011;61690;51.824;6.306;2023-06-26T12:52:34;5.78;;;1.30;;
73454;SDS011;61690;51.824;6.306;2023-06-26T12:54:59;5.33;;;1.50;;
73454;SDS011;61690;51.824;6.306;2023-06-26T12:57:24;5.03;;;1.30;;
73454;SDS011;61690;51.824;6.306;2023-06-26T12:59:51;4.37;;;1.50;;
73454;SDS011;61690;51.824;6.306;2023-06-26T13:02:16;5.07;;;1.45;;
73454;SDS011;61690;51.824;6.306;2023-06-26T13:04:42;4.23;;;1.60;;
73454;SDS011;61690;51.824;6.306;2023-06-26T13:07:12;7.05;;;1.58;;
73454;SDS011;61690;51.824;6.306;2023-06-26T13:09:37;4.82;;;1.33;;
73454;SDS011;61690;51.824;6.306;2023-06-26T13:12:04;7.50;;;1.37;;
73454;SDS011;61690;51.824;6.306;2023-06-26T13:14:30;5.72;;;1.60;;
73454;SDS011;61690;51.824;6.306;2023-06-26T13:16:56;5.10;;;1.50;;
73454;SDS011;61690;51.824;6.306;2023-06-26T13:19:23;6.53;;;1.57;;
73454;SDS011;61690;51.824;6.306;2023-06-26T13:21:51;5.38;;;1.83;;
73454;SDS011;61690;51.824;6.306;2023-06-26T13:24:18;6.20;;;1.77;;
73454;SDS011;61690;51.824;6.306;2023-06-26T13:26:43;5.40;;;1.53;;
73454;SDS011;61690;51.824;6.306;2023-06-26T13:29:08;6.63;;;1.83;;
73454;SDS011;61690;51.824;6.306;2023-06-26T13:31:34;5.53;;;1.77;;
73454;SDS011;61690;51.824;6.306;2023-06-26T13:33:59;5.83;;;1.80;;
73454;SDS011;61690;51.824;6.306;2023-06-26T13:36:28;6.43;;;1.77;;
73454;SDS011;61690;51.824;6.306;2023-06-26T13:38:55;5.85;;;1.38;;
73454;SDS011;61690;51.824;6.306;2023-06-26T13:41:23;6.30;;;1.70;;
73454;SDS011;61690;51.824;6.306;2023-06-26T13:43:57;6.20;;;1.40;;
73454;SDS011;61690;51.824;6.306;2023-06-26T13:46:23;4.03;;;1.40;;
73454;SDS011;61690;51.824;6.306;2023-06-26T13:48:51;6.95;;;1.60;;
73454;SDS011;61690;51.824;6.306;2023-06-26T13:51:16;6.72;;;1.60;;
73454;SDS011;61690;51.824;6.306;2023-06-26T13:53:41;6.17;;;1.33;;
73454;SDS011;61690;51.824;6.306;2023-06-26T13:56:08;6.38;;;1.20;;
73454;SDS011;61690;51.824;6.306;2023-06-26T13:58:34;5.50;;;1.30;;
73454;SDS011;61690;51.824;6.306;2023-06-26T14:01:01;5.32;;;1.30;;
73454;SDS011;61690;51.824;6.306;2023-06-26T14:03:26;5.37;;;1.20;;
73454;SDS011;61690;51.824;6.306;2023-06-26T14:05:55;3.92;;;1.10;;
73454;SDS011;61690;51.824;6.306;2023-06-26T14:08:20;6.80;;;1.30;;
73454;SDS011;61690;51.824;6.306;2023-06-26T14:10:47;9.32;;;1.55;;
73454;SDS011;61690;51.824;6.306;2023-06-26T14:13:12;4.10;;;1.10;;
73454;SDS011;61690;51.824;6.306;2023-06-26T14:15:41;4.75;;;1.10;;
73454;SDS011;61690;51.824;6.306;2023-06-26T14:18:13;5.13;;;1.13;;
73454;SDS011;61690;51.824;6.306;2023-06-26T14:20:40;6.70;;;1.43;;
73454;SDS011;61690;51.824;6.306;2023-06-26T14:23:05;5.82;;;1.30;;
73454;SDS011;61690;51.824;6.306;2023-06-26T14:25:30;4.93;;;1.00;;
73454;SDS011;61690;51.824;6.306;2023-06-26T14:27:57;4.13;;;1.10;;
73454;SDS011;61690;51.824;6.306;2023-06-26T14:30:27;4.72;;;1.30;;
73454;SDS011;61690;51.824;6.306;2023-06-26T14:32:55;4.97;;;1.30;;
73454;SDS011;61690;51.824;6.306;2023-06-26T14:35:22;4.53;;;1.40;;
73454;SDS011;61690;51.824;6.306;2023-06-26T14:37:47;4.80;;;1.40;;
73454;SDS011;61690;51.824;6.306;2023-06-26T14:40:13;5.10;;;1.30;;
73454;SDS011;61690;51.824;6.306;2023-06-26T14:42:41;4.07;;;1.38;;
73454;SDS011;61690;51.824;6.306;2023-06-26T14:45:11;5.28;;;1.30;;
73454;SDS011;61690;51.824;6.306;2023-06-26T14:47:37;5.32;;;1.42;;
73454;SDS011;61690;51.824;6.306;2023-06-26T14:50:02;6.90;;;1.40;;